sensor_id;sensor_type;location;lat;lon;timestamp;temperature;humidity
24518;DHT22;12678;51.336;12.406;2023-08-06T00:01:51;17.40;99.90
24518;DHT22;12678;51.336;12.406;2023-08-06T00:04:17;17.30;99.90
24518;DHT22;12678;51.336;12.406;2023-08-06T00:06:42;17.20;99.90
24518;DHT22;12678;51.336;12.406;2023-08-06T00:09:08;17.20;99.90
24518;DHT22;12678;51.336;12.406;2023-08-06T00:11:34;17.30;99.90
24518;DHT22;12678;51.336;12.406;2023-08-06T00:13:59;17.30;99.90
24518;DHT22;12678;51.336;12.406;2023-08-06T00:16:25;17.20;99.90
24518;DHT22;12678;51.336;12.406;2023-08-06T00:18:50;17.20;99.90
24518;DHT22;12678;51.336;12.406;2023-08-06T00:21:16;17.20;99.90
24518;DHT22;12678;51.336;12.406;2023-08-06T00:23:41;17.20;99.90
24518;DHT22;12678;51.336;12.406;2023-08-06T00:26:07;17.20;99.90
24518;DHT22;12678;51.336;12.406;2023-08-06T00:28:33;17.10;99.90
24518;DHT22;12678;51.336;12.406;2023-08-06T00:30:59;17.00;99.90
24518;DHT22;12678;51.336;12.406;2023-08-06T00:33:24;17.00;99.90
24518;DHT22;12678;51.336;12.406;2023-08-06T00:35:50;17.00;99.90
24518;DHT22;12678;51.336;12.406;2023-08-06T00:38:16;17.00;99.90
24518;DHT22;12678;51.336;12.406;2023-08-06T00:40:42;16.90;99.90
24518;DHT22;12678;51.336;12.406;2023-08-06T00:43:08;17.00;99.90
24518;DHT22;12678;51.336;12.406;2023-08-06T00:45:35;17.00;99.90
24518;DHT22;12678;51.336;12.406;2023-08-06T00:48:02;17.00;99.90
24518;DHT22;12678;51.336;12.406;2023-08-06T00:50:29;17.00;99.90
24518;DHT22;12678;51.336;12.406;2023-08-06T00:52:55;17.00;99.90
24518;DHT22;12678;51.336;12.406;2023-08-06T00:55:20;17.00;99.90
24518;DHT22;12678;51.336;12.406;2023-08-06T00:57:46;17.00;99.90
24518;DHT22;12678;51.336;12.406;2023-08-06T01:00:12;16.90;99.90
24518;DHT22;12678;51.336;12.406;2023-08-06T01:02:38;17.00;99.90
24518;DHT22;12678;51.336;12.406;2023-08-06T01:05:04;17.10;99.90
24518;DHT22;12678;51.336;12.406;2023-08-06T01:07:37;17.10;99.90
24518;DHT22;12678;51.336;12.406;2023-08-06T01:15:17;17.10;99.90
24518;DHT22;12678;51.336;12.406;2023-08-06T01:17:44;17.10;99.90
24518;DHT22;12678;51.336;12.406;2023-08-06T01:20:10;17.10;99.90
24518;DHT22;12678;51.336;12.406;2023-08-06T01:22:36;17.10;99.90
24518;DHT22;12678;51.336;12.406;2023-08-06T01:25:01;17.00;99.90
24518;DHT22;12678;51.336;12.406;2023-08-06T01:27:35;17.00;99.90
24518;DHT22;12678;51.336;12.406;2023-08-06T01:30:09;17.00;99.90
24518;DHT22;12678;51.336;12.406;2023-08-06T01:32:42;17.10;99.90
24518;DHT22;12678;51.336;12.406;2023-08-06T01:35:10;17.00;99.90
24518;DHT22;12678;51.336;12.406;2023-08-06T01:37:37;17.00;99.90
24518;DHT22;12678;51.336;12.406;2023-08-06T01:40:09;17.00;99.90
24518;DHT22;12678;51.336;12.406;2023-08-06T01:42:36;16.90;99.90
24518;DHT22;12678;51.336;12.406;2023-08-06T01:45:01;16.90;99.90
24518;DHT22;12678;51.336;12.406;2023-08-06T01:47:28;16.90;99.90
24518;DHT22;12678;51.336;12.406;2023-08-06T01:49:54;16.90;99.90
24518;DHT22;12678;51.336;12.406;2023-08-06T01:52:19;16.90;99.90
24518;DHT22;12678;51.336;12.406;2023-08-06T01:54:45;16.90;99.90
24518;DHT22;12678;51.336;12.406;2023-08-06T01:57:10;16.90;99.90
24518;DHT22;12678;51.336;12.406;2023-08-06T01:59:36;16.90;99.90
24518;DHT22;12678;51.336;12.406;2023-08-06T02:02:01;17.10;99.90
24518;DHT22;12678;51.336;12.406;2023-08-06T02:04:27;17.10;99.90
24518;DHT22;12678;51.336;12.406;2023-08-06T02:06:52;17.10;99.90
24518;DHT22;12678;51.336;12.406;2023-08-06T02:09:18;17.00;99.90
24518;DHT22;12678;51.336;12.406;2023-08-06T02:11:44;16.90;99.90
24518;DHT22;12678;51.336;12.406;2023-08-06T02:14:09;16.90;99.90
24518;DHT22;12678;51.336;12.406;2023-08-06T02:16:36;17.00;99.90
24518;DHT22;12678;51.336;12.406;2023-08-06T02:19:02;16.90;99.90
24518;DHT22;12678;51.336;12.406;2023-08-06T02:21:27;16.80;99.90
24518;DHT22;12678;51.336;12.406;2023-08-06T02:23:53;16.80;99.90
24518;DHT22;12678;51.336;12.406;2023-08-06T02:26:19;16.80;99.90
24518;DHT22;12678;51.336;12.406;2023-08-06T02:28:44;16.70;99.90
24518;DHT22;12678;51.336;12.406;2023-08-06T02:31:10;16.70;99.90
24518;DHT22;12678;51.336;12.406;2023-08-06T02:33:36;16.70;99.90
24518;DHT22;12678;51.336;12.406;2023-08-06T02:36:03;16.60;99.90
24518;DHT22;12678;51.336;12.406;2023-08-06T02:38:29;16.60;99.90
24518;DHT22;12678;51.336;12.406;2023-08-06T02:40:55;16.60;99.90
24518;DHT22;12678;51.336;12.406;2023-08-06T02:43:21;16.60;99.90
24518;DHT22;12678;51.336;12.406;2023-08-06T02:45:46;16.70;99.90
24518;DHT22;12678;51.336;12.406;2023-08-06T02:48:12;16.70;99.90
24518;DHT22;12678;51.336;12.406;2023-08-06T02:50:41;16.60;99.90
24518;DHT22;12678;51.336;12.406;2023-08-06T02:53:07;16.70;99.90
24518;DHT22;12678;51.336;12.406;2023-08-06T02:55:34;16.60;99.90
24518;DHT22;12678;51.336;12.406;2023-08-06T02:58:01;16.50;99.90
24518;DHT22;12678;51.336;12.406;2023-08-06T03:00:28;16.50;99.90
24518;DHT22;12678;51.336;12.406;2023-08-06T03:02:53;16.40;99.90
24518;DHT22;12678;51.336;12.406;2023-08-06T03:05:19;16.40;99.90
24518;DHT22;12678;51.336;12.406;2023-08-06T03:07:45;16.50;99.90
24518;DHT22;12678;51.336;12.406;2023-08-06T03:10:10;16.50;99.90
24518;DHT22;12678;51.336;12.406;2023-08-06T03:12:36;16.40;99.90
24518;DHT22;12678;51.336;12.406;2023-08-06T03:15:05;16.50;99.90
24518;DHT22;12678;51.336;12.406;2023-08-06T03:17:30;16.50;99.90
24518;DHT22;12678;51.336;12.406;2023-08-06T03:19:56;16.60;99.90
24518;DHT22;12678;51.336;12.406;2023-08-06T03:22:21;16.60;99.90
24518;DHT22;12678;51.336;12.406;2023-08-06T03:24:50;16.60;99.90
24518;DHT22;12678;51.336;12.406;2023-08-06T03:27:16;16.70;99.90
24518;DHT22;12678;51.336;12.406;2023-08-06T03:29:41;16.70;99.90
24518;DHT22;12678;51.336;12.406;2023-08-06T03:32:07;16.70;99.90
24518;DHT22;12678;51.336;12.406;2023-08-06T03:34:33;16.50;99.90
24518;DHT22;12678;51.336;12.406;2023-08-06T03:36:58;16.50;99.90
24518;DHT22;12678;51.336;12.406;2023-08-06T03:39:24;16.50;99.90
24518;DHT22;12678;51.336;12.406;2023-08-06T03:41:50;16.40;99.90
24518;DHT22;12678;51.336;12.406;2023-08-06T03:44:15;16.40;99.90
24518;DHT22;12678;51.336;12.406;2023-08-06T03:46:41;16.30;99.90
24518;DHT22;12678;51.336;12.406;2023-08-06T03:49:06;16.40;99.90
24518;DHT22;12678;51.336;12.406;2023-08-06T03:51:32;16.30;99.90
24518;DHT22;12678;51.336;12.406;2023-08-06T03:53:57;16.30;99.90
24518;DHT22;12678;51.336;12.406;2023-08-06T03:56:23;16.30;99.90
24518;DHT22;12678;51.336;12.406;2023-08-06T03:58:48;16.40;99.90
24518;DHT22;12678;51.336;12.406;2023-08-06T04:01:14;16.40;99.90
24518;DHT22;12678;51.336;12.406;2023-08-06T04:03:39;16.70;99.90
24518;DHT22;12678;51.336;12.406;2023-08-06T04:06:06;16.60;99.90
24518;DHT22;12678;51.336;12.406;2023-08-06T04:08:32;16.40;99.90
24518;DHT22;12678;51.336;12.406;2023-08-06T04:10:58;16.40;99.90
24518;DHT22;12678;51.336;12.406;2023-08-06T04:13:23;16.30;99.90
24518;DHT22;12678;51.336;12.406;2023-08-06T04:15:49;16.40;99.90
24518;DHT22;12678;51.336;12.406;2023-08-06T04:18:14;17.00;99.90
24518;DHT22;12678;51.336;12.406;2023-08-06T04:20:44;17.20;99.90
24518;DHT22;12678;51.336;12.406;2023-08-06T04:23:10;17.10;99.90
24518;DHT22;12678;51.336;12.406;2023-08-06T04:25:35;17.10;99.90
24518;DHT22;12678;51.336;12.406;2023-08-06T04:28:01;17.10;99.90
24518;DHT22;12678;51.336;12.406;2023-08-06T04:30:27;17.20;99.90
24518;DHT22;12678;51.336;12.406;2023-08-06T04:32:52;17.20;99.90
24518;DHT22;12678;51.336;12.406;2023-08-06T04:35:18;17.20;99.90
24518;DHT22;12678;51.336;12.406;2023-08-06T04:37:43;17.60;99.90
24518;DHT22;12678;51.336;12.406;2023-08-06T04:40:09;18.00;99.90
24518;DHT22;12678;51.336;12.406;2023-08-06T04:42:35;18.40;99.90
24518;DHT22;12678;51.336;12.406;2023-08-06T04:45:01;18.70;99.90
24518;DHT22;12678;51.336;12.406;2023-08-06T04:47:27;18.80;99.90
24518;DHT22;12678;51.336;12.406;2023-08-06T04:49:53;19.00;99.90
24518;DHT22;12678;51.336;12.406;2023-08-06T04:52:19;18.90;99.90
24518;DHT22;12678;51.336;12.406;2023-08-06T04:54:44;19.00;99.90
24518;DHT22;12678;51.336;12.406;2023-08-06T04:57:10;19.10;99.90
24518;DHT22;12678;51.336;12.406;2023-08-06T04:59:35;19.10;99.90
24518;DHT22;12678;51.336;12.406;2023-08-06T05:02:01;18.90;99.90
24518;DHT22;12678;51.336;12.406;2023-08-06T05:04:27;19.00;99.90
24518;DHT22;12678;51.336;12.406;2023-08-06T05:06:53;19.00;99.90
24518;DHT22;12678;51.336;12.406;2023-08-06T05:09:18;19.10;99.90
24518;DHT22;12678;51.336;12.406;2023-08-06T05:11:46;19.00;99.90
24518;DHT22;12678;51.336;12.406;2023-08-06T05:14:11;19.00;99.90
24518;DHT22;12678;51.336;12.406;2023-08-06T05:16:37;18.90;99.90
24518;DHT22;12678;51.336;12.406;2023-08-06T05:19:03;18.70;99.90
24518;DHT22;12678;51.336;12.406;2023-08-06T05:21:28;18.80;99.90
24518;DHT22;12678;51.336;12.406;2023-08-06T05:23:54;18.90;99.90
24518;DHT22;12678;51.336;12.406;2023-08-06T05:26:20;19.10;99.90
24518;DHT22;12678;51.336;12.406;2023-08-06T05:28:45;19.10;99.90
24518;DHT22;12678;51.336;12.406;2023-08-06T05:31:11;19.20;99.90
24518;DHT22;12678;51.336;12.406;2023-08-06T05:33:37;19.30;99.90
24518;DHT22;12678;51.336;12.406;2023-08-06T05:36:03;19.10;99.90
24518;DHT22;12678;51.336;12.406;2023-08-06T05:38:30;19.00;99.90
24518;DHT22;12678;51.336;12.406;2023-08-06T05:40:55;19.00;99.90
24518;DHT22;12678;51.336;12.406;2023-08-06T05:43:21;19.20;99.90
24518;DHT22;12678;51.336;12.406;2023-08-06T05:45:49;19.30;99.90
24518;DHT22;12678;51.336;12.406;2023-08-06T05:48:15;19.40;99.90
24518;DHT22;12678;51.336;12.406;2023-08-06T05:50:41;19.20;99.90
24518;DHT22;12678;51.336;12.406;2023-08-06T05:53:07;19.30;99.90
24518;DHT22;12678;51.336;12.406;2023-08-06T05:55:33;19.40;99.90
24518;DHT22;12678;51.336;12.406;2023-08-06T05:57:59;19.40;99.90
24518;DHT22;12678;51.336;12.406;2023-08-06T06:00:24;19.50;99.90
24518;DHT22;12678;51.336;12.406;2023-08-06T06:02:50;19.50;99.90
24518;DHT22;12678;51.336;12.406;2023-08-06T06:05:15;19.50;99.90
24518;DHT22;12678;51.336;12.406;2023-08-06T06:07:41;19.50;99.90
24518;DHT22;12678;51.336;12.406;2023-08-06T06:10:07;19.60;99.90
24518;DHT22;12678;51.336;12.406;2023-08-06T06:12:33;19.60;99.90
24518;DHT22;12678;51.336;12.406;2023-08-06T06:14:58;19.60;99.90
24518;DHT22;12678;51.336;12.406;2023-08-06T06:17:26;19.80;99.90
24518;DHT22;12678;51.336;12.406;2023-08-06T06:19:52;19.80;99.90
24518;DHT22;12678;51.336;12.406;2023-08-06T06:22:17;19.70;99.90
24518;DHT22;12678;51.336;12.406;2023-08-06T06:24:43;19.80;99.90
24518;DHT22;12678;51.336;12.406;2023-08-06T06:27:08;19.80;99.90
24518;DHT22;12678;51.336;12.406;2023-08-06T06:29:34;19.80;99.90
24518;DHT22;12678;51.336;12.406;2023-08-06T06:31:59;19.60;99.90
24518;DHT22;12678;51.336;12.406;2023-08-06T06:34:25;19.70;99.90
24518;DHT22;12678;51.336;12.406;2023-08-06T06:36:50;19.90;99.90
24518;DHT22;12678;51.336;12.406;2023-08-06T06:39:17;19.60;99.90
24518;DHT22;12678;51.336;12.406;2023-08-06T06:41:43;19.50;99.90
24518;DHT22;12678;51.336;12.406;2023-08-06T06:44:09;19.60;99.90
24518;DHT22;12678;51.336;12.406;2023-08-06T06:46:35;19.40;99.90
24518;DHT22;12678;51.336;12.406;2023-08-06T06:49:00;19.40;99.90
24518;DHT22;12678;51.336;12.406;2023-08-06T06:51:26;19.40;99.90
24518;DHT22;12678;51.336;12.406;2023-08-06T06:53:51;19.40;99.90
24518;DHT22;12678;51.336;12.406;2023-08-06T06:56:17;19.40;99.90
24518;DHT22;12678;51.336;12.406;2023-08-06T06:58:42;19.50;99.90
24518;DHT22;12678;51.336;12.406;2023-08-06T07:01:09;19.40;99.90
24518;DHT22;12678;51.336;12.406;2023-08-06T07:03:37;19.40;99.90
24518;DHT22;12678;51.336;12.406;2023-08-06T07:06:02;19.50;99.90
24518;DHT22;12678;51.336;12.406;2023-08-06T07:08:29;19.60;99.90
24518;DHT22;12678;51.336;12.406;2023-08-06T07:11:05;19.80;99.90
24518;DHT22;12678;51.336;12.406;2023-08-06T07:13:32;20.00;99.90
24518;DHT22;12678;51.336;12.406;2023-08-06T07:15:58;20.00;99.90
24518;DHT22;12678;51.336;12.406;2023-08-06T07:18:24;20.10;99.90
24518;DHT22;12678;51.336;12.406;2023-08-06T07:20:54;20.00;99.90
24518;DHT22;12678;51.336;12.406;2023-08-06T07:23:23;20.00;99.90
24518;DHT22;12678;51.336;12.406;2023-08-06T07:25:49;20.00;99.90
24518;DHT22;12678;51.336;12.406;2023-08-06T07:28:15;20.00;99.90
24518;DHT22;12678;51.336;12.406;2023-08-06T07:30:42;20.10;99.90
24518;DHT22;12678;51.336;12.406;2023-08-06T07:33:08;20.10;99.90
24518;DHT22;12678;51.336;12.406;2023-08-06T07:35:34;19.90;99.90
24518;DHT22;12678;51.336;12.406;2023-08-06T07:38:00;20.00;99.90
24518;DHT22;12678;51.336;12.406;2023-08-06T07:40:26;19.90;99.90
24518;DHT22;12678;51.336;12.406;2023-08-06T07:42:51;19.80;99.90
24518;DHT22;12678;51.336;12.406;2023-08-06T07:45:17;19.90;99.90
24518;DHT22;12678;51.336;12.406;2023-08-06T07:47:42;20.10;99.90
24518;DHT22;12678;51.336;12.406;2023-08-06T07:50:09;20.10;99.90
24518;DHT22;12678;51.336;12.406;2023-08-06T07:52:34;19.90;99.90
24518;DHT22;12678;51.336;12.406;2023-08-06T07:55:00;19.90;99.90
24518;DHT22;12678;51.336;12.406;2023-08-06T07:57:28;19.90;99.90
24518;DHT22;12678;51.336;12.406;2023-08-06T07:59:53;19.90;99.90
24518;DHT22;12678;51.336;12.406;2023-08-06T08:02:19;20.00;99.90
24518;DHT22;12678;51.336;12.406;2023-08-06T08:04:45;19.90;99.90
24518;DHT22;12678;51.336;12.406;2023-08-06T08:07:12;19.90;99.90
24518;DHT22;12678;51.336;12.406;2023-08-06T08:09:38;20.00;99.90
24518;DHT22;12678;51.336;12.406;2023-08-06T08:12:04;20.00;99.90
24518;DHT22;12678;51.336;12.406;2023-08-06T08:14:30;19.80;99.90
24518;DHT22;12678;51.336;12.406;2023-08-06T08:17:01;19.90;99.90
24518;DHT22;12678;51.336;12.406;2023-08-06T08:19:27;19.80;99.90
24518;DHT22;12678;51.336;12.406;2023-08-06T08:21:53;19.80;99.90
24518;DHT22;12678;51.336;12.406;2023-08-06T08:24:20;19.80;99.90
24518;DHT22;12678;51.336;12.406;2023-08-06T08:26:46;19.70;99.90
24518;DHT22;12678;51.336;12.406;2023-08-06T08:29:12;19.70;99.90
24518;DHT22;12678;51.336;12.406;2023-08-06T08:31:37;19.70;99.90
24518;DHT22;12678;51.336;12.406;2023-08-06T08:34:05;19.90;99.90
24518;DHT22;12678;51.336;12.406;2023-08-06T08:36:31;20.00;99.90
24518;DHT22;12678;51.336;12.406;2023-08-06T08:38:56;20.20;99.90
24518;DHT22;12678;51.336;12.406;2023-08-06T08:41:22;20.30;99.90
24518;DHT22;12678;51.336;12.406;2023-08-06T08:43:50;20.50;99.90
24518;DHT22;12678;51.336;12.406;2023-08-06T08:46:19;20.70;99.90
24518;DHT22;12678;51.336;12.406;2023-08-06T08:48:45;20.70;99.90
24518;DHT22;12678;51.336;12.406;2023-08-06T08:51:12;20.90;99.90
24518;DHT22;12678;51.336;12.406;2023-08-06T08:53:39;21.00;99.90
24518;DHT22;12678;51.336;12.406;2023-08-06T08:56:05;21.20;99.90
24518;DHT22;12678;51.336;12.406;2023-08-06T08:58:31;21.30;99.90
24518;DHT22;12678;51.336;12.406;2023-08-06T09:00:57;21.30;99.90
24518;DHT22;12678;51.336;12.406;2023-08-06T09:03:23;21.20;99.90
24518;DHT22;12678;51.336;12.406;2023-08-06T09:05:53;21.10;99.90
24518;DHT22;12678;51.336;12.406;2023-08-06T09:08:22;21.20;99.90
24518;DHT22;12678;51.336;12.406;2023-08-06T09:10:50;21.40;99.90
24518;DHT22;12678;51.336;12.406;2023-08-06T09:13:17;21.50;99.90
24518;DHT22;12678;51.336;12.406;2023-08-06T09:15:43;21.70;99.90
24518;DHT22;12678;51.336;12.406;2023-08-06T09:18:10;21.70;99.90
24518;DHT22;12678;51.336;12.406;2023-08-06T09:20:38;21.50;99.90
24518;DHT22;12678;51.336;12.406;2023-08-06T09:23:09;21.60;99.90
24518;DHT22;12678;51.336;12.406;2023-08-06T09:25:39;21.60;99.90
24518;DHT22;12678;51.336;12.406;2023-08-06T09:28:08;21.50;99.90
24518;DHT22;12678;51.336;12.406;2023-08-06T09:30:36;21.50;99.90
24518;DHT22;12678;51.336;12.406;2023-08-06T09:33:01;21.60;99.90
24518;DHT22;12678;51.336;12.406;2023-08-06T09:35:31;21.60;99.90
24518;DHT22;12678;51.336;12.406;2023-08-06T09:38:08;21.80;99.90
24518;DHT22;12678;51.336;12.406;2023-08-06T09:40:36;21.90;99.90
24518;DHT22;12678;51.336;12.406;2023-08-06T09:43:02;21.50;99.90
24518;DHT22;12678;51.336;12.406;2023-08-06T09:45:35;21.70;99.90
24518;DHT22;12678;51.336;12.406;2023-08-06T09:48:05;21.80;99.90
24518;DHT22;12678;51.336;12.406;2023-08-06T09:50:33;21.80;99.90
24518;DHT22;12678;51.336;12.406;2023-08-06T09:53:00;21.70;99.90
24518;DHT22;12678;51.336;12.406;2023-08-06T09:55:26;21.60;99.90
24518;DHT22;12678;51.336;12.406;2023-08-06T09:57:52;21.80;99.90
24518;DHT22;12678;51.336;12.406;2023-08-06T10:00:19;22.00;99.90
24518;DHT22;12678;51.336;12.406;2023-08-06T10:02:45;22.00;99.90
24518;DHT22;12678;51.336;12.406;2023-08-06T10:05:11;21.90;99.90
24518;DHT22;12678;51.336;12.406;2023-08-06T10:07:37;21.70;99.90
24518;DHT22;12678;51.336;12.406;2023-08-06T10:10:07;21.80;99.90
24518;DHT22;12678;51.336;12.406;2023-08-06T10:12:49;21.90;99.90
24518;DHT22;12678;51.336;12.406;2023-08-06T10:15:19;21.80;99.90
24518;DHT22;12678;51.336;12.406;2023-08-06T10:17:51;22.00;99.90
24518;DHT22;12678;51.336;12.406;2023-08-06T10:20:18;22.00;99.90
24518;DHT22;12678;51.336;12.406;2023-08-06T10:23:00;22.20;99.90
24518;DHT22;12678;51.336;12.406;2023-08-06T10:25:26;22.20;99.90
24518;DHT22;12678;51.336;12.406;2023-08-06T10:27:55;22.30;99.90
24518;DHT22;12678;51.336;12.406;2023-08-06T10:30:30;22.50;99.90
24518;DHT22;12678;51.336;12.406;2023-08-06T10:32:58;22.50;99.90
24518;DHT22;12678;51.336;12.406;2023-08-06T10:35:41;22.30;99.90
24518;DHT22;12678;51.336;12.406;2023-08-06T10:40:40;22.70;99.90
24518;DHT22;12678;51.336;12.406;2023-08-06T10:43:06;22.80;99.90
24518;DHT22;12678;51.336;12.406;2023-08-06T10:45:37;22.70;99.90
24518;DHT22;12678;51.336;12.406;2023-08-06T10:48:03;22.70;99.90
24518;DHT22;12678;51.336;12.406;2023-08-06T10:50:29;22.80;99.90
24518;DHT22;12678;51.336;12.406;2023-08-06T10:52:56;22.70;99.90
24518;DHT22;12678;51.336;12.406;2023-08-06T10:55:29;22.70;99.90
24518;DHT22;12678;51.336;12.406;2023-08-06T10:57:56;22.80;99.90
24518;DHT22;12678;51.336;12.406;2023-08-06T11:00:23;22.70;99.90
24518;DHT22;12678;51.336;12.406;2023-08-06T11:02:52;22.60;99.90
24518;DHT22;12678;51.336;12.406;2023-08-06T11:05:18;22.70;99.90
24518;DHT22;12678;51.336;12.406;2023-08-06T11:07:44;22.60;99.90
24518;DHT22;12678;51.336;12.406;2023-08-06T11:10:12;22.70;99.90
24518;DHT22;12678;51.336;12.406;2023-08-06T11:12:38;22.80;99.90
24518;DHT22;12678;51.336;12.406;2023-08-06T11:15:04;22.60;99.90
24518;DHT22;12678;51.336;12.406;2023-08-06T11:17:32;22.70;99.90
24518;DHT22;12678;51.336;12.406;2023-08-06T11:20:04;22.80;99.90
24518;DHT22;12678;51.336;12.406;2023-08-06T11:22:30;22.90;99.90
24518;DHT22;12678;51.336;12.406;2023-08-06T11:24:57;22.70;99.90
24518;DHT22;12678;51.336;12.406;2023-08-06T11:27:23;22.60;99.90
24518;DHT22;12678;51.336;12.406;2023-08-06T11:29:53;22.80;99.90
24518;DHT22;12678;51.336;12.406;2023-08-06T11:32:19;23.00;99.90
24518;DHT22;12678;51.336;12.406;2023-08-06T11:34:44;23.10;99.90
24518;DHT22;12678;51.336;12.406;2023-08-06T11:37:10;23.10;99.90
24518;DHT22;12678;51.336;12.406;2023-08-06T11:39:37;23.20;99.90
24518;DHT22;12678;51.336;12.406;2023-08-06T11:42:03;23.20;99.90
24518;DHT22;12678;51.336;12.406;2023-08-06T11:44:31;23.20;99.90
24518;DHT22;12678;51.336;12.406;2023-08-06T11:47:00;23.20;99.90
24518;DHT22;12678;51.336;12.406;2023-08-06T11:49:45;23.20;99.90
24518;DHT22;12678;51.336;12.406;2023-08-06T11:54:40;22.90;99.90
24518;DHT22;12678;51.336;12.406;2023-08-06T11:57:07;22.70;99.90
24518;DHT22;12678;51.336;12.406;2023-08-06T11:59:32;22.80;99.90
24518;DHT22;12678;51.336;12.406;2023-08-06T12:02:03;22.80;99.90
24518;DHT22;12678;51.336;12.406;2023-08-06T12:04:31;22.80;99.90
24518;DHT22;12678;51.336;12.406;2023-08-06T12:07:16;22.80;99.90
24518;DHT22;12678;51.336;12.406;2023-08-06T12:09:41;22.80;99.90
24518;DHT22;12678;51.336;12.406;2023-08-06T12:12:07;22.80;99.90
24518;DHT22;12678;51.336;12.406;2023-08-06T12:14:32;22.90;99.90
24518;DHT22;12678;51.336;12.406;2023-08-06T12:16:58;23.00;99.90
24518;DHT22;12678;51.336;12.406;2023-08-06T12:19:23;23.10;99.90
24518;DHT22;12678;51.336;12.406;2023-08-06T12:21:49;23.20;99.90
24518;DHT22;12678;51.336;12.406;2023-08-06T12:24:14;23.20;99.90
24518;DHT22;12678;51.336;12.406;2023-08-06T12:26:40;23.30;99.90
24518;DHT22;12678;51.336;12.406;2023-08-06T12:29:05;23.20;99.90
24518;DHT22;12678;51.336;12.406;2023-08-06T12:31:31;23.20;99.90
24518;DHT22;12678;51.336;12.406;2023-08-06T12:33:56;23.30;99.90
24518;DHT22;12678;51.336;12.406;2023-08-06T12:36:22;23.30;99.90
24518;DHT22;12678;51.336;12.406;2023-08-06T12:38:47;23.40;99.90
24518;DHT22;12678;51.336;12.406;2023-08-06T12:41:13;23.40;99.90
24518;DHT22;12678;51.336;12.406;2023-08-06T12:43:38;23.40;99.90
24518;DHT22;12678;51.336;12.406;2023-08-06T12:46:04;23.50;99.90
24518;DHT22;12678;51.336;12.406;2023-08-06T12:48:29;23.40;99.90
24518;DHT22;12678;51.336;12.406;2023-08-06T12:50:55;23.40;99.90
24518;DHT22;12678;51.336;12.406;2023-08-06T12:53:21;23.40;99.90
24518;DHT22;12678;51.336;12.406;2023-08-06T12:55:48;23.40;99.90
24518;DHT22;12678;51.336;12.406;2023-08-06T12:58:14;23.30;99.90
24518;DHT22;12678;51.336;12.406;2023-08-06T13:00:39;23.30;99.90
24518;DHT22;12678;51.336;12.406;2023-08-06T13:03:05;23.30;99.90
24518;DHT22;12678;51.336;12.406;2023-08-06T13:05:30;23.40;99.90
24518;DHT22;12678;51.336;12.406;2023-08-06T13:07:56;23.30;99.90
24518;DHT22;12678;51.336;12.406;2023-08-06T13:10:22;23.40;99.90
24518;DHT22;12678;51.336;12.406;2023-08-06T13:12:48;23.40;99.90
24518;DHT22;12678;51.336;12.406;2023-08-06T13:15:14;23.30;99.90
24518;DHT22;12678;51.336;12.406;2023-08-06T13:17:39;23.30;99.90
24518;DHT22;12678;51.336;12.406;2023-08-06T13:20:07;23.30;99.90
24518;DHT22;12678;51.336;12.406;2023-08-06T13:22:33;23.20;99.90
24518;DHT22;12678;51.336;12.406;2023-08-06T13:24:59;23.20;99.90
24518;DHT22;12678;51.336;12.406;2023-08-06T13:27:24;23.20;99.90
24518;DHT22;12678;51.336;12.406;2023-08-06T13:29:50;23.00;99.90
24518;DHT22;12678;51.336;12.406;2023-08-06T13:32:15;22.90;99.90
24518;DHT22;12678;51.336;12.406;2023-08-06T13:34:41;22.90;99.90
24518;DHT22;12678;51.336;12.406;2023-08-06T13:37:06;22.80;99.90
24518;DHT22;12678;51.336;12.406;2023-08-06T13:39:32;22.80;99.90
24518;DHT22;12678;51.336;12.406;2023-08-06T13:41:57;22.90;99.90
24518;DHT22;12678;51.336;12.406;2023-08-06T13:44:23;22.90;99.90
24518;DHT22;12678;51.336;12.406;2023-08-06T13:46:48;23.00;99.90
24518;DHT22;12678;51.336;12.406;2023-08-06T13:49:14;23.10;99.90
24518;DHT22;12678;51.336;12.406;2023-08-06T13:51:39;23.10;99.90
24518;DHT22;12678;51.336;12.406;2023-08-06T13:54:05;23.10;99.90
24518;DHT22;12678;51.336;12.406;2023-08-06T13:56:32;23.20;99.90
24518;DHT22;12678;51.336;12.406;2023-08-06T13:58:57;23.30;99.90
24518;DHT22;12678;51.336;12.406;2023-08-06T14:01:23;23.30;99.90
24518;DHT22;12678;51.336;12.406;2023-08-06T14:03:49;23.40;99.90
24518;DHT22;12678;51.336;12.406;2023-08-06T14:06:14;23.30;99.90
24518;DHT22;12678;51.336;12.406;2023-08-06T14:08:40;23.40;99.90
24518;DHT22;12678;51.336;12.406;2023-08-06T14:11:06;23.50;99.90
24518;DHT22;12678;51.336;12.406;2023-08-06T14:13:32;23.50;99.90
24518;DHT22;12678;51.336;12.406;2023-08-06T14:15:57;23.40;99.90
24518;DHT22;12678;51.336;12.406;2023-08-06T14:18:23;23.30;99.90
24518;DHT22;12678;51.336;12.406;2023-08-06T14:20:48;23.30;99.90
24518;DHT22;12678;51.336;12.406;2023-08-06T14:23:14;23.20;99.90
24518;DHT22;12678;51.336;12.406;2023-08-06T14:25:39;23.20;99.90
24518;DHT22;12678;51.336;12.406;2023-08-06T14:28:05;23.20;99.90
24518;DHT22;12678;51.336;12.406;2023-08-06T14:30:32;23.20;99.90
24518;DHT22;12678;51.336;12.406;2023-08-06T14:32:57;23.10;99.90
24518;DHT22;12678;51.336;12.406;2023-08-06T14:35:25;23.00;99.90
24518;DHT22;12678;51.336;12.406;2023-08-06T14:37:51;23.10;99.90
24518;DHT22;12678;51.336;12.406;2023-08-06T14:40:16;23.00;99.90
24518;DHT22;12678;51.336;12.406;2023-08-06T14:42:42;23.10;99.90
24518;DHT22;12678;51.336;12.406;2023-08-06T14:45:08;22.90;99.90
24518;DHT22;12678;51.336;12.406;2023-08-06T14:47:33;23.10;99.90
24518;DHT22;12678;51.336;12.406;2023-08-06T14:49:59;23.20;99.90
24518;DHT22;12678;51.336;12.406;2023-08-06T14:52:24;23.20;99.90
24518;DHT22;12678;51.336;12.406;2023-08-06T14:54:50;23.30;99.90
24518;DHT22;12678;51.336;12.406;2023-08-06T14:57:17;23.30;99.90
24518;DHT22;12678;51.336;12.406;2023-08-06T14:59:43;23.30;99.90
24518;DHT22;12678;51.336;12.406;2023-08-06T15:02:09;23.30;99.90
24518;DHT22;12678;51.336;12.406;2023-08-06T15:04:34;23.30;99.90
24518;DHT22;12678;51.336;12.406;2023-08-06T15:07:00;23.30;99.90
24518;DHT22;12678;51.336;12.406;2023-08-06T15:09:25;23.30;99.90
24518;DHT22;12678;51.336;12.406;2023-08-06T15:11:50;23.40;99.90
24518;DHT22;12678;51.336;12.406;2023-08-06T15:14:16;23.40;99.90
24518;DHT22;12678;51.336;12.406;2023-08-06T15:16:42;23.40;99.90
24518;DHT22;12678;51.336;12.406;2023-08-06T15:19:07;23.30;99.90
24518;DHT22;12678;51.336;12.406;2023-08-06T15:21:33;23.30;99.90